Time;durP1;ratioP1;P1;durP2;ratioP2;P2;SDS_P1;SDS_P2;PMS_P1;PMS_P2;Temp;Humidity;BMP_temperature;BMP_pressure;BME280_temperature;BME280_humidity;BME280_pressure;Samples;Min_cycle;Max_cycle;Signal;HPM_P1;HPM_P2
2023/03/21 00:02:45;;;;;;;17.08;9.30;;;;;;;;;;6270193;22;20166;-88
2023/03/21 00:05:52;;;;;;;23.02;10.48;;;;;;;;;;6289287;22;20145;-89
2023/03/21 00:08:57;;;;;;;23.05;10.57;;;;;;;;;;6269386;22;20165;-92
2023/03/21 00:12:06;;;;;;;15.60;9.07;;;;;;;;;;6269992;22;20197;-90
2023/03/21 00:15:13;;;;;;;15.77;9.23;;;;;;;;;;6290605;22;20177;-89
2023/03/21 00:18:21;;;;;;;16.80;9.45;;;;;;;;;;6289861;22;20166;-91
2023/03/21 00:21:41;;;;;;;16.95;9.73;;;;;;;;;;6288328;22;20177;-90
2023/03/21 00:24:47;;;;;;;17.25;9.68;;;;;;;;;;6290475;22;20621;-90
2023/03/21 00:27:52;;;;;;;15.90;9.27;;;;;;;;;;6287989;22;20166;-92
2023/03/21 00:30:59;;;;;;;15.77;9.27;;;;;;;;;;6290338;22;20201;-89
2023/03/21 00:34:04;;;;;;;15.93;8.70;;;;;;;;;;6289179;22;20169;-89
2023/03/21 00:37:10;;;;;;;22.48;9.95;;;;;;;;;;6289824;22;20157;-91
2023/03/21 00:40:19;;;;;;;17.00;9.50;;;;;;;;;;6289669;22;20174;-89
2023/03/21 00:43:29;;;;;;;18.67;9.63;;;;;;;;;;6287652;22;20174;-90
2023/03/21 00:46:37;;;;;;;16.85;9.55;;;;;;;;;;6271186;22;20182;-89
2023/03/21 00:49:44;;;;;;;15.35;9.70;;;;;;;;;;6287614;22;20213;-90
2023/03/21 00:52:50;;;;;;;17.77;9.15;;;;;;;;;;6288821;22;20200;-91
2023/03/21 00:55:55;;;;;;;17.77;9.00;;;;;;;;;;6272174;22;20162;-90
2023/03/21 00:59:00;;;;;;;16.25;9.35;;;;;;;;;;6289056;22;20285;-90
2023/03/21 01:02:30;;;;;;;19.58;9.30;;;;;;;;;;6287947;22;20197;-88
2023/03/21 01:09:01;;;;;;;17.10;9.30;;;;;;;;;;6288396;22;20166;-92
2023/03/21 01:12:07;;;;;;;16.80;9.02;;;;;;;;;;6287522;22;20204;-89
2023/03/21 01:15:15;;;;;;;14.52;8.85;;;;;;;;;;6271132;22;20162;-88
2023/03/21 01:18:21;;;;;;;16.08;9.20;;;;;;;;;;6286668;22;20209;-89
2023/03/21 01:21:48;;;;;;;16.65;9.02;;;;;;;;;;6287668;22;20154;-91
2023/03/21 01:24:55;;;;;;;17.40;9.20;;;;;;;;;;6288516;22;20153;-89
2023/03/21 01:28:01;;;;;;;16.15;8.23;;;;;;;;;;6288396;22;20181;-91
2023/03/21 01:31:07;;;;;;;17.45;8.75;;;;;;;;;;6289564;22;20197;-90
2023/03/21 01:34:13;;;;;;;15.45;8.93;;;;;;;;;;6289634;22;20601;-90
2023/03/21 01:37:19;;;;;;;16.23;9.30;;;;;;;;;;6288901;22;20169;-92
2023/03/21 01:40:28;;;;;;;18.70;9.48;;;;;;;;;;6288478;22;20166;-89
2023/03/21 01:43:44;;;;;;;14.77;8.93;;;;;;;;;;6288479;22;20149;-89
2023/03/21 01:46:51;;;;;;;19.30;8.63;;;;;;;;;;6287355;22;20487;-88
2023/03/21 01:50:15;;;;;;;18.23;8.68;;;;;;;;;;6289026;22;20162;-91
2023/03/21 01:53:41;;;;;;;13.25;8.57;;;;;;;;;;6265301;22;20186;-89
2023/03/21 01:56:50;;;;;;;17.55;9.23;;;;;;;;;;6287372;22;20149;-89
2023/03/21 01:59:56;;;;;;;18.70;8.70;;;;;;;;;;6286138;22;20212;-89
2023/03/21 02:03:02;;;;;;;15.77;8.85;;;;;;;;;;6289082;22;20154;-90
2023/03/21 02:06:30;;;;;;;17.30;8.93;;;;;;;;;;6270354;22;20530;-90
2023/03/21 02:09:44;;;;;;;12.60;8.27;;;;;;;;;;6288302;22;20189;-91
2023/03/21 02:12:57;;;;;;;16.77;9.35;;;;;;;;;;6287651;22;20678;-90
2023/03/21 02:16:03;;;;;;;16.80;8.80;;;;;;;;;;6289471;22;20169;-92
2023/03/21 02:19:22;;;;;;;16.45;9.07;;;;;;;;;;6288919;22;20209;-93
2023/03/21 02:22:54;;;;;;;17.45;8.05;;;;;;;;;;6288897;22;20177;-90
2023/03/21 02:26:27;;;;;;;14.77;8.95;;;;;;;;;;6288781;22;20169;-90
2023/03/21 02:29:52;;;;;;;14.57;9.27;;;;;;;;;;6288523;22;20878;-90
2023/03/21 02:33:07;;;;;;;17.95;9.18;;;;;;;;;;6270813;22;20333;-93
2023/03/21 02:36:26;;;;;;;19.98;9.88;;;;;;;;;;6286051;22;20220;-92
2023/03/21 02:39:38;;;;;;;17.25;9.60;;;;;;;;;;6287277;22;20166;-92
2023/03/21 02:42:49;;;;;;;16.17;8.80;;;;;;;;;;6287165;22;20182;-91
2023/03/21 02:45:58;;;;;;;15.82;8.85;;;;;;;;;;6288345;22;20201;-90
2023/03/21 02:49:08;;;;;;;14.45;8.02;;;;;;;;;;6287052;22;20157;-91
2023/03/21 02:52:16;;;;;;;18.50;9.43;;;;;;;;;;6289011;22;20190;-92
2023/03/21 02:55:23;;;;;;;15.85;8.90;;;;;;;;;;6289063;22;20169;-90
2023/03/21 02:58:33;;;;;;;11.43;7.80;;;;;;;;;;6287384;22;20177;-90
2023/03/21 03:01:41;;;;;;;16.83;8.88;;;;;;;;;;6287281;22;20157;-91
2023/03/21 03:04:46;;;;;;;15.43;8.98;;;;;;;;;;6286467;22;20300;-89
2023/03/21 03:08:06;;;;;;;21.45;9.45;;;;;;;;;;6270399;22;20150;-91
2023/03/21 03:11:28;;;;;;;13.57;8.45;;;;;;;;;;6271252;22;20271;-90
2023/03/21 03:14:39;;;;;;;16.15;8.50;;;;;;;;;;6288014;22;20190;-90
2023/03/21 03:17:49;;;;;;;17.48;8.27;;;;;;;;;;6285184;22;20189;-91
2023/03/21 03:20:57;;;;;;;16.40;8.50;;;;;;;;;;6287348;22;20146;-90
2023/03/21 03:24:05;;;;;;;15.07;8.35;;;;;;;;;;6287970;22;20173;-91
2023/03/21 03:27:14;;;;;;;14.48;8.18;;;;;;;;;;6287519;22;20232;-89
2023/03/21 03:30:20;;;;;;;15.10;8.93;;;;;;;;;;6288276;22;20153;-93
2023/03/21 03:33:26;;;;;;;19.80;9.18;;;;;;;;;;6286946;22;20240;-89
2023/03/21 03:36:35;;;;;;;14.75;8.73;;;;;;;;;;6288270;22;20165;-91
2023/03/21 03:39:47;;;;;;;16.13;7.90;;;;;;;;;;6288509;22;20735;-90
2023/03/21 03:42:54;;;;;;;13.05;7.60;;;;;;;;;;6286781;22;20214;-91
2023/03/21 03:46:11;;;;;;;18.67;8.27;;;;;;;;;;6287048;22;20166;-89
2023/03/21 03:49:21;;;;;;;15.00;8.43;;;;;;;;;;6290010;22;20232;-89
2023/03/21 03:52:28;;;;;;;21.42;8.82;;;;;;;;;;6291007;22;20209;-91
2023/03/21 03:55:45;;;;;;;17.17;8.90;;;;;;;;;;6289488;22;20169;-90
2023/03/21 03:58:55;;;;;;;16.43;8.63;;;;;;;;;;6290811;22;20169;-88
2023/03/21 04:02:45;;;;;;;17.30;8.90;;;;;;;;;;6289455;22;20169;-89
2023/03/21 04:05:54;;;;;;;16.48;9.27;;;;;;;;;;6289388;22;20166;-91
2023/03/21 04:09:00;;;;;;;16.13;8.80;;;;;;;;;;6289261;22;20493;-89
2023/03/21 04:12:07;;;;;;;15.23;8.50;;;;;;;;;;6289723;22;20193;-89
2023/03/21 04:15:16;;;;;;;15.40;9.00;;;;;;;;;;6290697;22;20150;-93
2023/03/21 04:18:26;;;;;;;14.02;8.50;;;;;;;;;;6290486;22;20197;-90
2023/03/21 04:21:32;;;;;;;14.70;8.38;;;;;;;;;;6289159;22;20962;-89
2023/03/21 04:24:38;;;;;;;15.65;8.57;;;;;;;;;;6273063;22;20832;-89
2023/03/21 04:27:45;;;;;;;16.25;8.25;;;;;;;;;;6271209;22;20296;-88
2023/03/21 04:31:16;;;;;;;16.08;8.57;;;;;;;;;;6290208;22;20166;-90
2023/03/21 04:34:28;;;;;;;13.52;8.65;;;;;;;;;;6289704;22;20536;-89
2023/03/21 04:37:37;;;;;;;16.33;8.75;;;;;;;;;;6289699;22;20174;-90
2023/03/21 04:40:43;;;;;;;14.77;8.13;;;;;;;;;;6289573;22;20209;-88
2023/03/21 04:43:48;;;;;;;15.85;8.57;;;;;;;;;;6290432;22;20165;-88
2023/03/21 04:46:56;;;;;;;17.42;7.72;;;;;;;;;;6288991;22;20166;-89
2023/03/21 04:50:01;;;;;;;14.13;8.57;;;;;;;;;;6270930;22;20166;-92
2023/03/21 04:53:06;;;;;;;15.43;8.38;;;;;;;;;;6289203;22;20189;-89
2023/03/21 04:56:11;;;;;;;16.80;8.48;;;;;;;;;;6289386;22;20150;-90
2023/03/21 04:59:17;;;;;;;19.27;8.27;;;;;;;;;;6289264;22;20150;-90
2023/03/21 05:02:26;;;;;;;16.63;9.38;;;;;;;;;;6271334;22;20170;-90
2023/03/21 05:05:31;;;;;;;15.50;8.63;;;;;;;;;;6272515;22;20224;-90
2023/03/21 05:08:37;;;;;;;15.30;8.63;;;;;;;;;;6271542;22;20218;-90
2023/03/21 05:11:43;;;;;;;19.10;8.80;;;;;;;;;;6289161;22;20218;-88
2023/03/21 05:14:51;;;;;;;19.05;9.25;;;;;;;;;;6288696;22;20165;-90
2023/03/21 05:17:58;;;;;;;19.93;9.97;;;;;;;;;;6288122;22;20236;-90
2023/03/21 05:21:09;;;;;;;17.63;9.57;;;;;;;;;;6271161;22;20165;-90
2023/03/21 05:24:16;;;;;;;17.07;9.10;;;;;;;;;;6269209;22;20166;-89
2023/03/21 05:27:34;;;;;;;20.98;10.25;;;;;;;;;;6288508;22;20200;-89
2023/03/21 05:30:40;;;;;;;20.88;10.65;;;;;;;;;;6270640;22;20162;-90
2023/03/21 05:33:47;;;;;;;28.53;12.83;;;;;;;;;;6271181;22;20193;-89
2023/03/21 05:36:57;;;;;;;23.75;10.82;;;;;;;;;;6272951;22;20166;-89
2023/03/21 05:40:07;;;;;;;25.20;11.13;;;;;;;;;;6272080;22;20617;-90
2023/03/21 05:43:14;;;;;;;19.93;11.03;;;;;;;;;;6270658;22;20189;-89
2023/03/21 05:46:20;;;;;;;22.30;11.80;;;;;;;;;;6272125;22;20172;-90
2023/03/21 05:49:27;;;;;;;29.98;12.55;;;;;;;;;;6289892;22;20200;-90
2023/03/21 05:52:36;;;;;;;20.95;11.07;;;;;;;;;;6272104;22;20656;-92
2023/03/21 05:55:49;;;;;;;17.30;9.97;;;;;;;;;;6272085;22;20193;-89
2023/03/21 05:59:12;;;;;;;22.83;11.00;;;;;;;;;;6289744;22;20189;-91
2023/03/21 06:02:23;;;;;;;22.57;10.90;;;;;;;;;;6269675;22;20232;-92
2023/03/21 06:05:30;;;;;;;18.33;10.17;;;;;;;;;;6273560;22;20170;-89
2023/03/21 06:08:36;;;;;;;22.70;11.90;;;;;;;;;;6272475;22;20227;-91
2023/03/21 06:11:44;;;;;;;29.10;12.77;;;;;;;;;;6269757;22;20259;-87
2023/03/21 06:15:01;;;;;;;30.73;13.10;;;;;;;;;;6291945;22;20171;-89
2023/03/21 06:18:20;;;;;;;22.77;11.68;;;;;;;;;;6273184;22;20170;-89
2023/03/21 06:22:02;;;;;;;25.92;12.57;;;;;;;;;;6287404;22;20166;-92
2023/03/21 06:25:11;;;;;;;24.80;12.30;;;;;;;;;;6272173;22;20154;-89
2023/03/21 06:28:16;;;;;;;28.13;14.05;;;;;;;;;;6269850;22;20189;-92
2023/03/21 06:31:23;;;;;;;27.80;13.18;;;;;;;;;;6268168;22;20169;-90
2023/03/21 06:34:31;;;;;;;25.45;13.20;;;;;;;;;;6265161;22;20256;-91
2023/03/21 06:37:38;;;;;;;22.95;12.02;;;;;;;;;;6288469;22;20165;-92
2023/03/21 06:40:43;;;;;;;22.42;12.88;;;;;;;;;;6267945;22;20238;-89
2023/03/21 06:43:48;;;;;;;25.60;13.25;;;;;;;;;;6268895;22;20185;-90
2023/03/21 06:46:55;;;;;;;26.67;13.82;;;;;;;;;;6267761;22;20170;-87
2023/03/21 06:50:00;;;;;;;26.15;13.07;;;;;;;;;;6268023;22;20177;-89
2023/03/21 06:53:07;;;;;;;26.88;13.70;;;;;;;;;;6268572;22;20181;-91
2023/03/21 06:56:29;;;;;;;25.88;13.63;;;;;;;;;;6270381;22;20170;-90
2023/03/21 06:59:35;;;;;;;24.70;12.68;;;;;;;;;;6270652;22;20166;-90
2023/03/21 07:02:46;;;;;;;23.42;13.05;;;;;;;;;;6269555;22;20213;-88
2023/03/21 07:05:54;;;;;;;21.65;12.07;;;;;;;;;;6271884;22;20214;-91
2023/03/21 07:09:04;;;;;;;27.33;12.45;;;;;;;;;;6270895;22;20597;-89
2023/03/21 07:12:11;;;;;;;25.38;12.60;;;;;;;;;;6270499;22;20174;-91
2023/03/21 07:15:37;;;;;;;28.52;13.15;;;;;;;;;;6270318;22;20178;-89
2023/03/21 07:18:43;;;;;;;27.40;12.50;;;;;;;;;;6269998;22;20184;-90
2023/03/21 07:21:51;;;;;;;23.00;12.15;;;;;;;;;;6271230;22;20246;-90
2023/03/21 07:24:58;;;;;;;32.33;12.80;;;;;;;;;;6269928;22;20200;-90
2023/03/21 07:28:07;;;;;;;28.73;13.60;;;;;;;;;;6271071;22;20228;-89
2023/03/21 07:31:14;;;;;;;34.63;14.85;;;;;;;;;;6271350;22;20216;-89
2023/03/21 07:34:19;;;;;;;31.85;15.90;;;;;;;;;;6269740;22;20193;-90
2023/03/21 07:37:25;;;;;;;33.25;14.35;;;;;;;;;;6271115;22;20170;-89
2023/03/21 07:40:42;;;;;;;34.33;15.25;;;;;;;;;;6271811;22;20209;-90
2023/03/21 07:43:47;;;;;;;30.90;15.25;;;;;;;;;;6271469;22;20173;-90
2023/03/21 07:46:52;;;;;;;30.98;14.93;;;;;;;;;;6270754;22;20170;-88
2023/03/21 07:49:57;;;;;;;26.65;13.00;;;;;;;;;;6273544;22;20166;-90
2023/03/21 07:53:03;;;;;;;25.67;11.10;;;;;;;;;;6272376;22;20193;-89
2023/03/21 07:56:10;;;;;;;18.80;10.70;;;;;;;;;;6274417;22;20213;-89
2023/03/21 07:59:30;;;;;;;19.73;10.82;;;;;;;;;;6271846;22;20597;-89
2023/03/21 08:02:53;;;;;;;21.00;11.57;;;;;;;;;;6272275;22;20198;-90
2023/03/21 08:06:00;;;;;;;21.73;10.55;;;;;;;;;;6270087;22;20205;-92
2023/03/21 08:09:06;;;;;;;21.15;10.23;;;;;;;;;;6271694;22;20212;-89
2023/03/21 08:12:13;;;;;;;21.55;10.05;;;;;;;;;;6273942;22;20165;-90
2023/03/21 08:15:45;;;;;;;24.33;11.00;;;;;;;;;;6273922;22;20150;-90
2023/03/21 08:18:50;;;;;;;21.52;9.68;;;;;;;;;;6272122;22;20158;-90
2023/03/21 08:21:58;;;;;;;15.85;7.93;;;;;;;;;;6290902;22;20539;-91
2023/03/21 08:25:04;;;;;;;21.60;8.35;;;;;;;;;;6294229;22;20177;-90
2023/03/21 08:28:11;;;;;;;14.10;7.28;;;;;;;;;;6292908;22;20202;-89
2023/03/21 08:34:12;;;;;;;35.55;15.02;;;;;;;;;;6243024;22;20202;-91
2023/03/21 08:37:18;;;;;;;21.80;11.52;;;;;;;;;;6293588;22;20166;-92
2023/03/21 08:40:23;;;;;;;14.80;7.32;;;;;;;;;;6271943;22;20574;-92
2023/03/21 08:43:30;;;;;;;19.95;9.52;;;;;;;;;;6290575;22;20312;-88
2023/03/21 08:46:36;;;;;;;18.20;7.70;;;;;;;;;;6289800;22;20165;-90
2023/03/21 08:49:41;;;;;;;19.30;8.35;;;;;;;;;;6287018;22;20165;-91
2023/03/21 08:52:46;;;;;;;20.90;7.78;;;;;;;;;;6289885;22;20154;-90
2023/03/21 08:55:51;;;;;;;13.25;6.60;;;;;;;;;;6289869;22;20180;-91
2023/03/21 08:59:01;;;;;;;14.45;7.60;;;;;;;;;;6289838;22;20170;-92
2023/03/21 09:02:07;;;;;;;11.48;6.43;;;;;;;;;;6290081;22;20185;-89
2023/03/21 09:05:13;;;;;;;13.52;7.03;;;;;;;;;;6291429;22;20165;-89
2023/03/21 09:08:22;;;;;;;15.57;6.70;;;;;;;;;;6292589;22;20161;-89
2023/03/21 09:11:27;;;;;;;15.13;6.60;;;;;;;;;;6291227;22;20178;-91
2023/03/21 09:14:34;;;;;;;9.77;5.93;;;;;;;;;;6289053;22;20216;-90
2023/03/21 09:17:42;;;;;;;11.23;5.60;;;;;;;;;;6291488;22;20214;-90
2023/03/21 09:20:49;;;;;;;13.18;5.78;;;;;;;;;;6293405;22;20165;-91
2023/03/21 09:23:58;;;;;;;9.05;5.40;;;;;;;;;;6292480;22;20154;-91
2023/03/21 09:27:03;;;;;;;10.25;5.55;;;;;;;;;;6274382;22;20161;-90
2023/03/21 09:30:10;;;;;;;15.27;6.68;;;;;;;;;;6289281;22;20146;-92
2023/03/21 09:33:18;;;;;;;11.18;6.30;;;;;;;;;;6290451;22;20169;-92
2023/03/21 09:36:23;;;;;;;12.35;6.13;;;;;;;;;;6289532;22;20616;-92
2023/03/21 09:39:29;;;;;;;11.40;6.10;;;;;;;;;;6290832;22;20153;-91
2023/03/21 09:42:38;;;;;;;9.32;5.80;;;;;;;;;;6287902;22;20285;-90
2023/03/21 09:45:49;;;;;;;8.77;4.50;;;;;;;;;;6287492;22;20213;-93
2023/03/21 09:48:57;;;;;;;8.45;4.93;;;;;;;;;;6287502;22;20220;-89
2023/03/21 09:52:04;;;;;;;8.88;4.88;;;;;;;;;;6268668;22;20153;-91
2023/03/21 09:55:18;;;;;;;10.18;6.10;;;;;;;;;;6289516;22;20178;-91
2023/03/21 09:58:26;;;;;;;7.22;4.80;;;;;;;;;;6288260;22;20174;-91
2023/03/21 10:01:59;;;;;;;10.10;4.88;;;;;;;;;;6272630;22;20218;-90
2023/03/21 10:05:11;;;;;;;8.52;5.38;;;;;;;;;;6288903;22;20197;-90
2023/03/21 10:08:21;;;;;;;9.40;5.05;;;;;;;;;;6287402;22;20170;-90
2023/03/21 10:11:28;;;;;;;8.43;4.68;;;;;;;;;;6287814;22;20494;-91
2023/03/21 10:14:35;;;;;;;8.70;4.60;;;;;;;;;;6286567;22;20213;-94
2023/03/21 10:17:42;;;;;;;12.98;4.35;;;;;;;;;;6269867;22;20189;-93
2023/03/21 10:20:58;;;;;;;7.60;4.55;;;;;;;;;;6287401;22;20166;-90
2023/03/21 10:24:02;;;;;;;8.10;4.80;;;;;;;;;;6287874;22;20247;-92
2023/03/21 10:27:07;;;;;;;8.15;4.00;;;;;;;;;;6289196;22;20230;-89
2023/03/21 10:30:27;;;;;;;9.80;4.35;;;;;;;;;;6271021;22;20165;-90
2023/03/21 10:33:34;;;;;;;11.10;5.28;;;;;;;;;;6287491;22;20165;-91
2023/03/21 10:36:41;;;;;;;9.65;4.38;;;;;;;;;;6272202;22;20161;-91
2023/03/21 10:39:47;;;;;;;5.85;3.78;;;;;;;;;;6288728;22;20165;-90
2023/03/21 10:42:55;;;;;;;19.35;8.35;;;;;;;;;;6288244;22;20218;-91
2023/03/21 10:46:06;;;;;;;8.60;3.95;;;;;;;;;;6287485;22;20170;-90
2023/03/21 10:49:16;;;;;;;7.05;3.78;;;;;;;;;;6289937;22;20165;-92
2023/03/21 10:52:24;;;;;;;6.63;3.85;;;;;;;;;;6271413;22;20176;-91
2023/03/21 10:55:31;;;;;;;6.40;3.65;;;;;;;;;;6287198;22;20168;-91
2023/03/21 10:58:37;;;;;;;6.53;3.53;;;;;;;;;;6287201;22;20177;-91
2023/03/21 11:01:43;;;;;;;5.60;3.60;;;;;;;;;;6286544;22;20223;-90
2023/03/21 11:04:49;;;;;;;10.07;3.97;;;;;;;;;;6288630;22;20196;-90
2023/03/21 11:08:05;;;;;;;5.78;3.38;;;;;;;;;;6290224;22;20177;-90
2023/03/21 11:11:14;;;;;;;7.55;4.20;;;;;;;;;;6288664;22;20247;-91
2023/03/21 11:14:27;;;;;;;8.20;3.70;;;;;;;;;;6288518;22;20173;-91
2023/03/21 11:17:35;;;;;;;9.35;3.95;;;;;;;;;;6283766;22;20185;-90
2023/03/21 11:20:49;;;;;;;6.80;4.00;;;;;;;;;;6285458;22;20216;-91
2023/03/21 11:23:57;;;;;;;8.50;3.70;;;;;;;;;;6287049;22;20192;-92
2023/03/21 11:27:06;;;;;;;8.27;3.78;;;;;;;;;;6288884;22;20227;-92
2023/03/21 11:30:20;;;;;;;6.07;3.92;;;;;;;;;;6269126;22;20165;-89
2023/03/21 11:33:29;;;;;;;6.80;4.13;;;;;;;;;;6285521;22;20173;-90
2023/03/21 11:36:37;;;;;;;5.13;3.50;;;;;;;;;;6286333;22;20620;-92
2023/03/21 11:39:45;;;;;;;7.45;3.65;;;;;;;;;;6289043;22;20204;-90
2023/03/21 11:42:52;;;;;;;6.07;3.63;;;;;;;;;;6286890;22;20165;-91
2023/03/21 11:45:57;;;;;;;7.93;3.60;;;;;;;;;;6269335;22;20193;-92
2023/03/21 11:49:03;;;;;;;8.00;3.50;;;;;;;;;;6285590;22;20243;-90
2023/03/21 11:52:16;;;;;;;8.18;3.20;;;;;;;;;;6288596;22;20177;-89
2023/03/21 11:55:39;;;;;;;5.72;3.38;;;;;;;;;;6287768;22;20170;-90
2023/03/21 11:58:52;;;;;;;5.88;3.72;;;;;;;;;;6268054;22;20204;-90
2023/03/21 12:02:04;;;;;;;8.07;4.00;;;;;;;;;;6284369;22;20170;-91
2023/03/21 12:05:16;;;;;;;6.55;3.47;;;;;;;;;;6286743;22;20208;-89
2023/03/21 12:08:27;;;;;;;6.80;3.47;;;;;;;;;;6269190;22;20240;-91
2023/03/21 12:11:38;;;;;;;9.07;3.55;;;;;;;;;;6271767;22;20246;-91
2023/03/21 12:14:49;;;;;;;8.27;3.47;;;;;;;;;;6288897;22;20209;-91
2023/03/21 12:18:00;;;;;;;9.18;3.55;;;;;;;;;;6270863;22;20226;-90
2023/03/21 12:21:15;;;;;;;11.25;4.60;;;;;;;;;;6288068;22;20177;-92
2023/03/21 12:24:21;;;;;;;11.40;6.72;;;;;;;;;;6288911;22;20236;-91
2023/03/21 12:27:32;;;;;;;8.45;4.07;;;;;;;;;;6290489;22;20177;-92
2023/03/21 12:30:43;;;;;;;8.00;3.42;;;;;;;;;;6270882;22;20223;-91
2023/03/21 12:33:58;;;;;;;7.30;3.20;;;;;;;;;;6270872;22;20173;-89
2023/03/21 12:37:10;;;;;;;5.63;3.05;;;;;;;;;;6288429;22;20173;-94
2023/03/21 12:40:18;;;;;;;9.40;4.07;;;;;;;;;;6289437;22;20165;-90
2023/03/21 12:43:27;;;;;;;5.85;2.83;;;;;;;;;;6289914;22;20170;-90
2023/03/21 12:46:38;;;;;;;7.90;3.15;;;;;;;;;;6292169;22;20157;-91
2023/03/21 12:49:44;;;;;;;5.00;3.05;;;;;;;;;;6292167;22;20166;-92
2023/03/21 12:52:53;;;;;;;5.65;3.35;;;;;;;;;;6291398;22;20166;-91
2023/03/21 12:55:59;;;;;;;7.53;3.33;;;;;;;;;;6274121;22;20258;-91
2023/03/21 12:59:09;;;;;;;6.35;3.63;;;;;;;;;;6289026;22;20161;-90
2023/03/21 13:02:23;;;;;;;12.85;3.70;;;;;;;;;;6289822;22;20177;-91
2023/03/21 13:05:30;;;;;;;6.05;3.17;;;;;;;;;;6291116;22;20198;-90
2023/03/21 13:08:38;;;;;;;6.68;3.50;;;;;;;;;;6286703;22;20161;-90
2023/03/21 13:11:44;;;;;;;7.57;3.22;;;;;;;;;;6288420;22;20247;-91
2023/03/21 13:14:57;;;;;;;6.13;3.60;;;;;;;;;;6270391;22;20169;-91
2023/03/21 13:18:12;;;;;;;8.80;4.38;;;;;;;;;;6288585;22;20173;-91
2023/03/21 13:21:23;;;;;;;4.32;3.28;;;;;;;;;;6289608;22;20173;-91
2023/03/21 13:24:33;;;;;;;7.80;3.78;;;;;;;;;;6287738;22;20297;-93
2023/03/21 13:27:39;;;;;;;5.43;3.13;;;;;;;;;;6288388;22;20167;-90
2023/03/21 13:30:45;;;;;;;7.38;3.45;;;;;;;;;;6288793;22;20213;-91
2023/03/21 13:33:53;;;;;;;5.53;3.63;;;;;;;;;;6269762;22;20677;-91
2023/03/21 13:36:59;;;;;;;8.35;3.55;;;;;;;;;;6287813;22;20169;-92
2023/03/21 13:40:10;;;;;;;8.07;3.63;;;;;;;;;;6272857;22;20169;-92
2023/03/21 13:43:40;;;;;;;5.78;3.55;;;;;;;;;;6272262;22;20156;-90
2023/03/21 13:46:46;;;;;;;5.63;3.95;;;;;;;;;;6271623;22;20507;-91
2023/03/21 13:50:06;;;;;;;6.38;3.65;;;;;;;;;;6289817;22;20169;-92
2023/03/21 13:53:26;;;;;;;6.35;3.58;;;;;;;;;;6270761;22;20166;-90
2023/03/21 13:56:48;;;;;;;8.68;4.63;;;;;;;;;;6270435;22;20248;-91
2023/03/21 14:00:16;;;;;;;9.90;3.50;;;;;;;;;;6287983;22;20165;-91
2023/03/21 14:07:42;;;;;;;6.70;3.95;;;;;;;;;;6289034;22;20167;-91
2023/03/21 14:10:49;;;;;;;5.95;3.50;;;;;;;;;;6288641;22;20542;-92
2023/03/21 14:13:59;;;;;;;6.93;3.72;;;;;;;;;;6288897;22;20499;-89
2023/03/21 14:17:12;;;;;;;7.60;3.50;;;;;;;;;;6289673;22;20202;-89
2023/03/21 14:20:20;;;;;;;7.85;3.53;;;;;;;;;;6272548;22;20173;-90
2023/03/21 14:23:26;;;;;;;7.35;4.28;;;;;;;;;;6288498;22;20212;-89
2023/03/21 14:26:34;;;;;;;8.90;3.65;;;;;;;;;;6287829;22;20192;-89
2023/03/21 14:29:41;;;;;;;10.43;4.30;;;;;;;;;;6288282;22;20165;-89
2023/03/21 14:32:47;;;;;;;6.95;3.90;;;;;;;;;;6289172;22;20208;-90
2023/03/21 14:35:54;;;;;;;12.38;3.58;;;;;;;;;;6271034;22;20216;-89
2023/03/21 14:39:06;;;;;;;9.23;4.15;;;;;;;;;;6269300;22;20505;-90
2023/03/21 14:42:13;;;;;;;9.50;3.35;;;;;;;;;;6288264;22;20161;-90
2023/03/21 14:45:22;;;;;;;8.70;3.88;;;;;;;;;;6286932;22;20700;-90
2023/03/21 14:48:30;;;;;;;7.70;3.50;;;;;;;;;;6290314;22;20173;-90
2023/03/21 14:51:35;;;;;;;6.13;3.70;;;;;;;;;;6290412;22;20181;-89
2023/03/21 14:54:41;;;;;;;10.85;4.03;;;;;;;;;;6289162;22;20220;-93
2023/03/21 14:57:47;;;;;;;10.20;4.05;;;;;;;;;;6271664;22;20213;-88
2023/03/21 15:01:03;;;;;;;6.53;3.65;;;;;;;;;;6290504;22;20161;-92
2023/03/21 15:04:09;;;;;;;8.60;4.00;;;;;;;;;;6292396;22;20173;-87
2023/03/21 15:07:24;;;;;;;7.97;4.18;;;;;;;;;;6273316;22;20606;-90
2023/03/21 15:10:31;;;;;;;7.18;4.28;;;;;;;;;;6291068;22;20166;-91
2023/03/21 15:13:45;;;;;;;15.70;3.70;;;;;;;;;;6290343;22;20282;-88
2023/03/21 15:16:52;;;;;;;11.68;3.97;;;;;;;;;;6287279;22;20252;-90
2023/03/21 15:19:58;;;;;;;8.20;3.88;;;;;;;;;;6289136;22;20210;-91
2023/03/21 15:23:05;;;;;;;7.53;3.67;;;;;;;;;;6290102;22;20246;-89
2023/03/21 15:29:35;;;;;;;7.25;4.07;;;;;;;;;;6272579;22;20193;-93
2023/03/21 15:32:42;;;;;;;15.25;4.05;;;;;;;;;;6289079;22;20170;-92
2023/03/21 15:35:54;;;;;;;10.57;3.38;;;;;;;;;;6290782;22;20239;-92
2023/03/21 15:39:02;;;;;;;6.15;3.10;;;;;;;;;;6289607;22;20182;-90
2023/03/21 15:42:23;;;;;;;7.75;3.53;;;;;;;;;;6289092;22;20239;-91
2023/03/21 15:45:28;;;;;;;7.40;3.72;;;;;;;;;;6289164;22;20518;-93
2023/03/21 15:48:35;;;;;;;7.40;3.65;;;;;;;;;;6291521;22;20177;-91
2023/03/21 15:51:41;;;;;;;6.15;3.63;;;;;;;;;;6272559;22;20166;-88
2023/03/21 15:54:49;;;;;;;4.93;3.40;;;;;;;;;;6273133;22;20499;-90
2023/03/21 15:57:54;;;;;;;6.65;3.80;;;;;;;;;;6290727;22;20508;-92
2023/03/21 16:01:09;;;;;;;7.47;3.65;;;;;;;;;;6291842;22;20316;-88
2023/03/21 16:04:17;;;;;;;13.15;3.72;;;;;;;;;;6289887;22;20149;-90
2023/03/21 16:07:24;;;;;;;6.10;3.63;;;;;;;;;;6291266;22;20233;-89
2023/03/21 16:10:31;;;;;;;8.85;4.47;;;;;;;;;;6273107;22;20161;-91
2023/03/21 16:13:39;;;;;;;10.05;4.07;;;;;;;;;;6291293;22;20217;-90
2023/03/21 16:16:45;;;;;;;7.85;3.65;;;;;;;;;;6291595;22;20174;-89
2023/03/21 16:19:52;;;;;;;8.18;4.10;;;;;;;;;;6291168;22;20222;-88
2023/03/21 16:22:57;;;;;;;8.40;4.00;;;;;;;;;;6289996;22;20221;-89
2023/03/21 16:26:03;;;;;;;15.95;3.85;;;;;;;;;;6293117;22;20510;-89
2023/03/21 16:29:08;;;;;;;4.60;3.28;;;;;;;;;;6274505;22;20166;-90
2023/03/21 16:32:16;;;;;;;8.85;3.90;;;;;;;;;;6272137;22;20210;-91
2023/03/21 16:35:24;;;;;;;15.20;4.53;;;;;;;;;;6289437;22;20205;-91
2023/03/21 16:38:30;;;;;;;16.92;5.20;;;;;;;;;;6292722;22;20620;-90
2023/03/21 16:41:34;;;;;;;12.15;4.05;;;;;;;;;;6289602;22;20181;-92
2023/03/21 16:44:40;;;;;;;30.40;14.63;;;;;;;;;;6289797;22;20169;-92
2023/03/21 16:47:46;;;;;;;11.43;4.60;;;;;;;;;;6290892;22;20182;-91
2023/03/21 16:50:52;;;;;;;8.85;4.78;;;;;;;;;;6289682;22;20170;-89
2023/03/21 16:54:01;;;;;;;8.02;3.97;;;;;;;;;;6291862;22;20173;-90
2023/03/21 16:57:07;;;;;;;10.57;7.22;;;;;;;;;;6289125;22;20593;-89
2023/03/21 17:00:15;;;;;;;7.65;4.30;;;;;;;;;;6289202;22;20220;-92
2023/03/21 17:03:26;;;;;;;10.27;4.53;;;;;;;;;;6274111;22;20194;-89
2023/03/21 17:06:37;;;;;;;16.80;6.20;;;;;;;;;;6295001;22;20185;-90
2023/03/21 17:09:43;;;;;;;12.60;5.35;;;;;;;;;;6290918;22;20166;-90
2023/03/21 17:12:48;;;;;;;18.02;7.85;;;;;;;;;;6290513;22;20165;-90
2023/03/21 17:16:00;;;;;;;27.77;9.63;;;;;;;;;;6290357;22;20161;-89
2023/03/21 17:19:07;;;;;;;21.65;9.15;;;;;;;;;;6290815;22;20193;-90
2023/03/21 17:22:14;;;;;;;14.50;7.43;;;;;;;;;;6272412;22;20174;-91
2023/03/21 17:25:20;;;;;;;14.90;7.20;;;;;;;;;;6291630;22;20692;-92
2023/03/21 17:28:26;;;;;;;24.73;9.90;;;;;;;;;;6290068;22;20205;-88
2023/03/21 17:31:33;;;;;;;11.75;5.82;;;;;;;;;;6273180;22;20285;-91
2023/03/21 17:34:39;;;;;;;16.90;7.68;;;;;;;;;;6290046;22;20193;-87
2023/03/21 17:37:49;;;;;;;22.60;9.18;;;;;;;;;;6291384;22;20181;-89
2023/03/21 17:40:54;;;;;;;18.27;8.35;;;;;;;;;;6293787;22;20166;-92
2023/03/21 17:44:01;;;;;;;19.83;7.00;;;;;;;;;;6275657;22;20222;-89
2023/03/21 17:47:06;;;;;;;14.40;5.80;;;;;;;;;;6273925;22;20229;-91
2023/03/21 17:50:15;;;;;;;13.85;4.78;;;;;;;;;;6291137;22;20161;-89
2023/03/21 17:53:22;;;;;;;11.93;5.07;;;;;;;;;;6289573;22;20226;-89
2023/03/21 17:56:29;;;;;;;13.00;5.47;;;;;;;;;;6274835;22;20566;-89
2023/03/21 17:59:35;;;;;;;19.58;5.63;;;;;;;;;;6292093;22;20213;-90
2023/03/21 18:02:40;;;;;;;16.92;6.47;;;;;;;;;;6275457;22;20178;-91
2023/03/21 18:05:46;;;;;;;16.30;6.05;;;;;;;;;;6292037;22;20189;-90
2023/03/21 18:08:56;;;;;;;16.17;6.78;;;;;;;;;;6289472;22;20169;-89
2023/03/21 18:12:01;;;;;;;18.98;8.10;;;;;;;;;;6289752;22;20166;-90
2023/03/21 18:15:34;;;;;;;15.32;7.05;;;;;;;;;;6271517;22;20220;-90
2023/03/21 18:18:40;;;;;;;18.27;7.72;;;;;;;;;;6272021;22;20166;-89
2023/03/21 18:21:46;;;;;;;23.83;9.43;;;;;;;;;;6271974;22;20190;-90
2023/03/21 18:24:54;;;;;;;20.67;10.43;;;;;;;;;;6271004;22;20653;-90
2023/03/21 18:27:59;;;;;;;23.20;10.32;;;;;;;;;;6271383;22;20170;-89
2023/03/21 18:31:05;;;;;;;23.38;10.38;;;;;;;;;;6272186;22;20226;-89
2023/03/21 18:34:10;;;;;;;22.50;10.80;;;;;;;;;;6270261;22;20178;-88
2023/03/21 18:37:15;;;;;;;26.83;10.88;;;;;;;;;;6268806;22;20176;-90
2023/03/21 18:40:22;;;;;;;28.88;10.70;;;;;;;;;;6272169;22;20184;-88
2023/03/21 18:43:30;;;;;;;25.63;10.63;;;;;;;;;;6273928;22;20212;-89
2023/03/21 18:46:45;;;;;;;27.80;10.80;;;;;;;;;;6272678;22;20178;-89
2023/03/21 18:49:51;;;;;;;23.27;10.50;;;;;;;;;;6272432;22;20319;-87
2023/03/21 18:52:57;;;;;;;23.42;10.10;;;;;;;;;;6274472;22;20177;-89
2023/03/21 18:56:05;;;;;;;123.07;30.52;;;;;;;;;;6256536;22;20701;-89